Crossville Memorial Whitson Field Crossville US
ICAO: KCSV
IATA: CSV
Category: Medium
Scheduled Services: No

Elevation: 1881 ft
TransAlt. 18000 ft.

Airport Communications:
ASOS:120.625
ATLANTA CNTR:133.6
NASHVILLE RDO:122.2
CTAF/UNICOM:122.7

KCSV Zoom In..

If you have problems with the map follow the link
https://www.worldairports.se/pages/airport.php?
ICAO=KCSV

Runways:

(A) RW 08 length 5418 ft width 100 ft
---- / hdg 75

(B) RW 26 length 5418 ft width 100 ft
ILS 109.10 / hdg 255

Location; KCSV
Day. 21 / Time. 19.53 Zulu
* Altimeter: 30.43
* Temperature: -02° c. -28.4°f.
* Wind from: 030° Speed 07 kn.
Dewpoint: -12° c.
Visibility: 10 Statute Miles.
Clouds: Clear (automated report).

KCSV 211953Z AUTO 03007KT 10SM CLR M02/M12 A3043 RMK AO2 SLP325 T10171117


Wind From 030°
Speed 07 kn.

 
 
jpsmedia worldairports.se 2020   terms of use